sensor_id;sensor_type;location;lat;lon;timestamp;P1;durP1;ratioP1;P2;durP2;ratioP2
74538;SDS011;66042;51.090;-115.340;2023-04-16T00:00:16;4.20;;;0.50;;
74538;SDS011;66042;51.090;-115.340;2023-04-16T00:02:43;3.10;;;0.50;;
74538;SDS011;66042;51.090;-115.340;2023-04-16T00:05:10;3.70;;;0.50;;
74538;SDS011;66042;51.090;-115.340;2023-04-16T00:07:37;3.00;;;0.50;;
74538;SDS011;66042;51.090;-115.340;2023-04-16T00:10:05;1.70;;;0.50;;
74538;SDS011;66042;51.090;-115.340;2023-04-16T00:12:33;3.60;;;0.90;;
74538;SDS011;66042;51.090;-115.340;2023-04-16T00:15:00;2.60;;;0.60;;
74538;SDS011;66042;51.090;-115.340;2023-04-16T00:17:27;6.90;;;0.60;;
74538;SDS011;66042;51.090;-115.340;2023-04-16T00:19:54;2.30;;;0.40;;
74538;SDS011;66042;51.090;-115.340;2023-04-16T00:22:21;1.00;;;0.50;;
74538;SDS011;66042;51.090;-115.340;2023-04-16T00:24:48;3.90;;;0.70;;
74538;SDS011;66042;51.090;-115.340;2023-04-16T00:27:17;2.20;;;0.50;;
74538;SDS011;66042;51.090;-115.340;2023-04-16T00:29:45;3.10;;;0.70;;
74538;SDS011;66042;51.090;-115.340;2023-04-16T00:32:12;1.80;;;0.80;;
74538;SDS011;66042;51.090;-115.340;2023-04-16T00:34:39;1.40;;;0.50;;
74538;SDS011;66042;51.090;-115.340;2023-04-16T00:37:06;2.60;;;0.80;;
74538;SDS011;66042;51.090;-115.340;2023-04-16T00:39:33;3.90;;;0.60;;
74538;SDS011;66042;51.090;-115.340;2023-04-16T00:42:01;2.50;;;0.30;;
74538;SDS011;66042;51.090;-115.340;2023-04-16T00:44:28;4.60;;;0.60;;
74538;SDS011;66042;51.090;-115.340;2023-04-16T00:46:56;3.00;;;0.70;;
74538;SDS011;66042;51.090;-115.340;2023-04-16T00:49:23;3.90;;;0.60;;
74538;SDS011;66042;51.090;-115.340;2023-04-16T00:51:51;4.20;;;0.70;;
74538;SDS011;66042;51.090;-115.340;2023-04-16T00:54:19;1.90;;;0.60;;
74538;SDS011;66042;51.090;-115.340;2023-04-16T00:56:46;4.50;;;0.60;;
74538;SDS011;66042;51.090;-115.340;2023-04-16T00:59:14;2.60;;;0.70;;
74538;SDS011;66042;51.090;-115.340;2023-04-16T01:01:42;2.90;;;0.40;;
74538;SDS011;66042;51.090;-115.340;2023-04-16T01:04:09;3.80;;;0.60;;
74538;SDS011;66042;51.090;-115.340;2023-04-16T01:06:37;1.90;;;0.40;;
74538;SDS011;66042;51.090;-115.340;2023-04-16T01:09:04;2.20;;;0.70;;
74538;SDS011;66042;51.090;-115.340;2023-04-16T01:11:32;3.60;;;0.70;;
74538;SDS011;66042;51.090;-115.340;2023-04-16T01:13:59;2.80;;;0.50;;
74538;SDS011;66042;51.090;-115.340;2023-04-16T01:16:26;2.80;;;0.60;;
74538;SDS011;66042;51.090;-115.340;2023-04-16T01:18:53;3.00;;;0.60;;
74538;SDS011;66042;51.090;-115.340;2023-04-16T01:21:20;3.30;;;0.60;;
74538;SDS011;66042;51.090;-115.340;2023-04-16T01:23:48;4.20;;;0.70;;
74538;SDS011;66042;51.090;-115.340;2023-04-16T01:26:15;3.00;;;0.70;;
74538;SDS011;66042;51.090;-115.340;2023-04-16T01:28:42;3.40;;;0.70;;
74538;SDS011;66042;51.090;-115.340;2023-04-16T01:31:09;3.40;;;0.60;;
74538;SDS011;66042;51.090;-115.340;2023-04-16T01:33:36;2.30;;;0.40;;
74538;SDS011;66042;51.090;-115.340;2023-04-16T01:36:03;2.70;;;0.70;;
74538;SDS011;66042;51.090;-115.340;2023-04-16T01:38:31;1.50;;;0.60;;
74538;SDS011;66042;51.090;-115.340;2023-04-16T01:40:58;2.50;;;0.50;;
74538;SDS011;66042;51.090;-115.340;2023-04-16T01:43:29;4.10;;;0.60;;
74538;SDS011;66042;51.090;-115.340;2023-04-16T01:46:13;1.50;;;0.40;;
74538;SDS011;66042;51.090;-115.340;2023-04-16T01:48:44;3.20;;;0.80;;
74538;SDS011;66042;51.090;-115.340;2023-04-16T01:51:12;3.60;;;0.70;;
74538;SDS011;66042;51.090;-115.340;2023-04-16T01:53:46;3.20;;;0.90;;
74538;SDS011;66042;51.090;-115.340;2023-04-16T01:56:23;2.10;;;0.60;;
74538;SDS011;66042;51.090;-115.340;2023-04-16T01:58:51;1.90;;;0.60;;
74538;SDS011;66042;51.090;-115.340;2023-04-16T02:01:19;2.50;;;0.80;;
74538;SDS011;66042;51.090;-115.340;2023-04-16T02:03:46;1.80;;;0.50;;
74538;SDS011;66042;51.090;-115.340;2023-04-16T02:06:13;1.40;;;0.50;;
74538;SDS011;66042;51.090;-115.340;2023-04-16T02:08:40;3.40;;;0.60;;
74538;SDS011;66042;51.090;-115.340;2023-04-16T02:11:08;1.00;;;0.50;;
74538;SDS011;66042;51.090;-115.340;2023-04-16T02:13:35;4.20;;;0.80;;
74538;SDS011;66042;51.090;-115.340;2023-04-16T02:16:03;2.10;;;0.50;;
74538;SDS011;66042;51.090;-115.340;2023-04-16T02:18:30;3.90;;;0.70;;
74538;SDS011;66042;51.090;-115.340;2023-04-16T02:20:58;3.00;;;0.60;;
74538;SDS011;66042;51.090;-115.340;2023-04-16T02:23:27;3.00;;;0.70;;
74538;SDS011;66042;51.090;-115.340;2023-04-16T02:25:58;1.80;;;0.50;;
74538;SDS011;66042;51.090;-115.340;2023-04-16T02:28:29;3.40;;;0.60;;
74538;SDS011;66042;51.090;-115.340;2023-04-16T02:30:56;3.60;;;0.50;;
74538;SDS011;66042;51.090;-115.340;2023-04-16T02:33:24;1.30;;;0.60;;
74538;SDS011;66042;51.090;-115.340;2023-04-16T02:35:51;2.70;;;0.70;;
74538;SDS011;66042;51.090;-115.340;2023-04-16T02:38:18;2.10;;;0.60;;
74538;SDS011;66042;51.090;-115.340;2023-04-16T02:40:45;2.10;;;0.60;;
74538;SDS011;66042;51.090;-115.340;2023-04-16T02:43:12;4.40;;;0.80;;
74538;SDS011;66042;51.090;-115.340;2023-04-16T02:45:39;1.70;;;0.40;;
74538;SDS011;66042;51.090;-115.340;2023-04-16T02:48:06;6.40;;;0.60;;
74538;SDS011;66042;51.090;-115.340;2023-04-16T02:50:34;3.00;;;0.70;;
74538;SDS011;66042;51.090;-115.340;2023-04-16T02:53:01;3.50;;;0.70;;
74538;SDS011;66042;51.090;-115.340;2023-04-16T02:55:29;4.50;;;1.20;;
74538;SDS011;66042;51.090;-115.340;2023-04-16T02:57:56;2.70;;;0.60;;
74538;SDS011;66042;51.090;-115.340;2023-04-16T03:00:23;3.80;;;0.60;;
74538;SDS011;66042;51.090;-115.340;2023-04-16T03:02:50;2.00;;;0.70;;
74538;SDS011;66042;51.090;-115.340;2023-04-16T03:05:17;2.80;;;0.60;;
74538;SDS011;66042;51.090;-115.340;2023-04-16T03:07:45;4.70;;;0.90;;
74538;SDS011;66042;51.090;-115.340;2023-04-16T03:10:12;10.00;;;0.70;;
74538;SDS011;66042;51.090;-115.340;2023-04-16T03:12:39;3.00;;;0.70;;
74538;SDS011;66042;51.090;-115.340;2023-04-16T03:15:07;3.40;;;0.80;;
74538;SDS011;66042;51.090;-115.340;2023-04-16T03:17:34;5.60;;;0.70;;
74538;SDS011;66042;51.090;-115.340;2023-04-16T03:20:01;6.40;;;0.80;;
74538;SDS011;66042;51.090;-115.340;2023-04-16T03:22:29;4.40;;;0.60;;
74538;SDS011;66042;51.090;-115.340;2023-04-16T03:24:56;5.20;;;0.70;;
74538;SDS011;66042;51.090;-115.340;2023-04-16T03:27:23;6.40;;;0.70;;
74538;SDS011;66042;51.090;-115.340;2023-04-16T03:29:50;3.80;;;0.70;;
74538;SDS011;66042;51.090;-115.340;2023-04-16T03:32:17;6.30;;;0.80;;
74538;SDS011;66042;51.090;-115.340;2023-04-16T03:34:44;5.20;;;1.20;;
74538;SDS011;66042;51.090;-115.340;2023-04-16T03:37:14;7.00;;;0.90;;
74538;SDS011;66042;51.090;-115.340;2023-04-16T03:39:41;5.60;;;0.90;;
74538;SDS011;66042;51.090;-115.340;2023-04-16T03:42:09;2.20;;;0.80;;
74538;SDS011;66042;51.090;-115.340;2023-04-16T03:44:36;2.50;;;0.70;;
74538;SDS011;66042;51.090;-115.340;2023-04-16T03:47:03;2.80;;;0.60;;
74538;SDS011;66042;51.090;-115.340;2023-04-16T03:49:30;4.10;;;1.00;;
74538;SDS011;66042;51.090;-115.340;2023-04-16T03:51:57;4.40;;;0.80;;
74538;SDS011;66042;51.090;-115.340;2023-04-16T03:54:24;5.10;;;0.90;;
74538;SDS011;66042;51.090;-115.340;2023-04-16T03:56:51;5.00;;;0.90;;
74538;SDS011;66042;51.090;-115.340;2023-04-16T03:59:19;4.70;;;1.10;;
74538;SDS011;66042;51.090;-115.340;2023-04-16T04:01:46;4.30;;;0.60;;
74538;SDS011;66042;51.090;-115.340;2023-04-16T04:04:13;5.40;;;1.00;;
74538;SDS011;66042;51.090;-115.340;2023-04-16T04:06:40;6.40;;;1.30;;
74538;SDS011;66042;51.090;-115.340;2023-04-16T04:09:08;4.00;;;0.60;;
74538;SDS011;66042;51.090;-115.340;2023-04-16T04:11:35;3.90;;;0.90;;
74538;SDS011;66042;51.090;-115.340;2023-04-16T04:14:02;6.20;;;1.00;;
74538;SDS011;66042;51.090;-115.340;2023-04-16T04:16:31;11.30;;;0.90;;
74538;SDS011;66042;51.090;-115.340;2023-04-16T04:18:58;3.90;;;0.80;;
74538;SDS011;66042;51.090;-115.340;2023-04-16T04:21:27;4.50;;;1.10;;
74538;SDS011;66042;51.090;-115.340;2023-04-16T04:23:54;3.90;;;0.60;;
74538;SDS011;66042;51.090;-115.340;2023-04-16T04:26:21;2.70;;;0.90;;
74538;SDS011;66042;51.090;-115.340;2023-04-16T04:28:48;9.40;;;4.10;;
74538;SDS011;66042;51.090;-115.340;2023-04-16T04:31:15;13.50;;;4.00;;
74538;SDS011;66042;51.090;-115.340;2023-04-16T04:33:42;7.70;;;3.00;;
74538;SDS011;66042;51.090;-115.340;2023-04-16T04:36:09;7.30;;;2.00;;
74538;SDS011;66042;51.090;-115.340;2023-04-16T04:38:36;5.30;;;1.50;;
74538;SDS011;66042;51.090;-115.340;2023-04-16T04:41:03;6.50;;;1.90;;
74538;SDS011;66042;51.090;-115.340;2023-04-16T04:43:30;7.00;;;1.90;;
74538;SDS011;66042;51.090;-115.340;2023-04-16T04:45:57;6.10;;;1.40;;
74538;SDS011;66042;51.090;-115.340;2023-04-16T04:48:24;5.00;;;1.40;;
74538;SDS011;66042;51.090;-115.340;2023-04-16T04:50:52;6.10;;;1.60;;
74538;SDS011;66042;51.090;-115.340;2023-04-16T04:53:19;6.10;;;1.60;;
74538;SDS011;66042;51.090;-115.340;2023-04-16T04:55:46;8.20;;;1.80;;
74538;SDS011;66042;51.090;-115.340;2023-04-16T04:58:14;7.30;;;1.30;;
74538;SDS011;66042;51.090;-115.340;2023-04-16T05:00:40;3.30;;;1.60;;
74538;SDS011;66042;51.090;-115.340;2023-04-16T05:03:10;5.30;;;1.00;;
74538;SDS011;66042;51.090;-115.340;2023-04-16T05:05:38;9.10;;;1.30;;
74538;SDS011;66042;51.090;-115.340;2023-04-16T05:08:06;5.70;;;1.40;;
74538;SDS011;66042;51.090;-115.340;2023-04-16T05:10:33;3.80;;;1.10;;
74538;SDS011;66042;51.090;-115.340;2023-04-16T05:13:00;5.20;;;1.10;;
74538;SDS011;66042;51.090;-115.340;2023-04-16T05:15:27;5.80;;;1.30;;
74538;SDS011;66042;51.090;-115.340;2023-04-16T05:17:54;3.40;;;1.00;;
74538;SDS011;66042;51.090;-115.340;2023-04-16T05:20:22;4.60;;;1.20;;
74538;SDS011;66042;51.090;-115.340;2023-04-16T05:22:55;8.10;;;1.10;;
74538;SDS011;66042;51.090;-115.340;2023-04-16T05:25:22;6.20;;;1.10;;
74538;SDS011;66042;51.090;-115.340;2023-04-16T05:27:52;4.80;;;1.10;;
74538;SDS011;66042;51.090;-115.340;2023-04-16T05:30:19;8.10;;;1.00;;
74538;SDS011;66042;51.090;-115.340;2023-04-16T05:32:46;6.10;;;1.60;;
74538;SDS011;66042;51.090;-115.340;2023-04-16T05:35:13;2.80;;;1.10;;
74538;SDS011;66042;51.090;-115.340;2023-04-16T05:37:40;2.10;;;1.10;;
74538;SDS011;66042;51.090;-115.340;2023-04-16T05:40:07;6.30;;;1.00;;
74538;SDS011;66042;51.090;-115.340;2023-04-16T05:42:35;2.20;;;1.10;;
74538;SDS011;66042;51.090;-115.340;2023-04-16T05:45:02;3.60;;;1.30;;
74538;SDS011;66042;51.090;-115.340;2023-04-16T05:47:30;4.30;;;1.10;;
74538;SDS011;66042;51.090;-115.340;2023-04-16T05:49:57;2.80;;;1.10;;
74538;SDS011;66042;51.090;-115.340;2023-04-16T05:52:24;4.80;;;1.10;;
74538;SDS011;66042;51.090;-115.340;2023-04-16T05:54:51;5.10;;;1.00;;
74538;SDS011;66042;51.090;-115.340;2023-04-16T05:57:18;12.40;;;1.80;;
74538;SDS011;66042;51.090;-115.340;2023-04-16T05:59:45;7.20;;;1.00;;
74538;SDS011;66042;51.090;-115.340;2023-04-16T06:02:12;5.00;;;1.10;;
74538;SDS011;66042;51.090;-115.340;2023-04-16T06:04:39;3.60;;;1.50;;
74538;SDS011;66042;51.090;-115.340;2023-04-16T06:07:06;6.40;;;1.30;;
74538;SDS011;66042;51.090;-115.340;2023-04-16T06:09:33;7.70;;;1.20;;
74538;SDS011;66042;51.090;-115.340;2023-04-16T06:12:01;2.40;;;0.80;;
74538;SDS011;66042;51.090;-115.340;2023-04-16T06:14:28;2.10;;;0.80;;
74538;SDS011;66042;51.090;-115.340;2023-04-16T06:16:55;1.90;;;0.70;;
74538;SDS011;66042;51.090;-115.340;2023-04-16T06:19:22;3.10;;;1.00;;
74538;SDS011;66042;51.090;-115.340;2023-04-16T06:21:49;2.00;;;0.80;;
74538;SDS011;66042;51.090;-115.340;2023-04-16T06:24:16;3.80;;;0.90;;
74538;SDS011;66042;51.090;-115.340;2023-04-16T06:26:43;4.10;;;0.70;;
74538;SDS011;66042;51.090;-115.340;2023-04-16T06:29:11;2.30;;;0.90;;
74538;SDS011;66042;51.090;-115.340;2023-04-16T06:31:38;10.70;;;0.90;;
74538;SDS011;66042;51.090;-115.340;2023-04-16T06:34:05;3.40;;;0.70;;
74538;SDS011;66042;51.090;-115.340;2023-04-16T06:36:33;5.40;;;0.90;;
74538;SDS011;66042;51.090;-115.340;2023-04-16T06:39:02;2.40;;;0.60;;
74538;SDS011;66042;51.090;-115.340;2023-04-16T06:41:30;4.50;;;0.60;;
74538;SDS011;66042;51.090;-115.340;2023-04-16T06:43:56;3.10;;;1.00;;
74538;SDS011;66042;51.090;-115.340;2023-04-16T06:46:24;3.90;;;0.90;;
74538;SDS011;66042;51.090;-115.340;2023-04-16T06:48:50;2.60;;;0.80;;
74538;SDS011;66042;51.090;-115.340;2023-04-16T06:51:21;3.00;;;0.60;;
74538;SDS011;66042;51.090;-115.340;2023-04-16T06:53:48;1.70;;;0.90;;
74538;SDS011;66042;51.090;-115.340;2023-04-16T06:56:16;2.40;;;0.90;;
74538;SDS011;66042;51.090;-115.340;2023-04-16T06:58:43;2.30;;;0.80;;
74538;SDS011;66042;51.090;-115.340;2023-04-16T07:01:10;1.50;;;0.60;;
74538;SDS011;66042;51.090;-115.340;2023-04-16T07:03:37;2.60;;;0.70;;
74538;SDS011;66042;51.090;-115.340;2023-04-16T07:06:04;1.50;;;0.60;;
74538;SDS011;66042;51.090;-115.340;2023-04-16T07:08:31;2.20;;;0.60;;
74538;SDS011;66042;51.090;-115.340;2023-04-16T07:10:58;2.70;;;0.90;;
74538;SDS011;66042;51.090;-115.340;2023-04-16T07:13:25;3.00;;;1.10;;
74538;SDS011;66042;51.090;-115.340;2023-04-16T07:15:52;2.10;;;0.50;;
74538;SDS011;66042;51.090;-115.340;2023-04-16T07:18:22;2.20;;;1.30;;
74538;SDS011;66042;51.090;-115.340;2023-04-16T07:20:49;4.00;;;1.10;;
74538;SDS011;66042;51.090;-115.340;2023-04-16T07:23:16;3.00;;;1.00;;
74538;SDS011;66042;51.090;-115.340;2023-04-16T07:25:43;5.50;;;0.90;;
74538;SDS011;66042;51.090;-115.340;2023-04-16T07:28:10;4.90;;;1.00;;
74538;SDS011;66042;51.090;-115.340;2023-04-16T07:30:38;3.60;;;0.60;;
74538;SDS011;66042;51.090;-115.340;2023-04-16T07:33:05;1.90;;;0.90;;
74538;SDS011;66042;51.090;-115.340;2023-04-16T07:35:32;1.50;;;0.70;;
74538;SDS011;66042;51.090;-115.340;2023-04-16T07:38:00;2.60;;;0.80;;
74538;SDS011;66042;51.090;-115.340;2023-04-16T07:40:27;7.00;;;0.80;;
74538;SDS011;66042;51.090;-115.340;2023-04-16T07:42:55;2.20;;;0.70;;
74538;SDS011;66042;51.090;-115.340;2023-04-16T07:45:22;4.20;;;0.90;;
74538;SDS011;66042;51.090;-115.340;2023-04-16T07:47:49;2.60;;;1.00;;
74538;SDS011;66042;51.090;-115.340;2023-04-16T07:50:16;1.70;;;0.60;;
74538;SDS011;66042;51.090;-115.340;2023-04-16T07:52:45;2.10;;;0.90;;
74538;SDS011;66042;51.090;-115.340;2023-04-16T07:55:12;2.80;;;0.70;;
74538;SDS011;66042;51.090;-115.340;2023-04-16T07:57:40;2.20;;;0.60;;
74538;SDS011;66042;51.090;-115.340;2023-04-16T08:00:08;3.00;;;0.80;;
74538;SDS011;66042;51.090;-115.340;2023-04-16T08:02:35;2.90;;;1.10;;
74538;SDS011;66042;51.090;-115.340;2023-04-16T08:05:03;6.20;;;0.90;;
74538;SDS011;66042;51.090;-115.340;2023-04-16T08:07:30;1.40;;;0.60;;
74538;SDS011;66042;51.090;-115.340;2023-04-16T08:09:57;2.10;;;0.70;;
74538;SDS011;66042;51.090;-115.340;2023-04-16T08:12:24;4.60;;;0.90;;
74538;SDS011;66042;51.090;-115.340;2023-04-16T08:14:51;1.60;;;0.50;;
74538;SDS011;66042;51.090;-115.340;2023-04-16T08:17:18;1.90;;;0.80;;
74538;SDS011;66042;51.090;-115.340;2023-04-16T08:19:45;1.80;;;0.90;;
74538;SDS011;66042;51.090;-115.340;2023-04-16T08:22:15;2.40;;;0.90;;
74538;SDS011;66042;51.090;-115.340;2023-04-16T08:24:43;2.30;;;0.60;;
74538;SDS011;66042;51.090;-115.340;2023-04-16T08:27:10;1.80;;;0.80;;
74538;SDS011;66042;51.090;-115.340;2023-04-16T08:29:37;2.50;;;0.60;;
74538;SDS011;66042;51.090;-115.340;2023-04-16T08:32:04;2.00;;;0.90;;
74538;SDS011;66042;51.090;-115.340;2023-04-16T08:34:31;2.10;;;0.60;;
74538;SDS011;66042;51.090;-115.340;2023-04-16T08:36:58;4.90;;;0.70;;
74538;SDS011;66042;51.090;-115.340;2023-04-16T08:39:25;2.20;;;0.70;;
74538;SDS011;66042;51.090;-115.340;2023-04-16T08:41:53;1.60;;;0.60;;
74538;SDS011;66042;51.090;-115.340;2023-04-16T08:44:32;1.10;;;0.50;;
74538;SDS011;66042;51.090;-115.340;2023-04-16T08:47:01;1.60;;;0.90;;
74538;SDS011;66042;51.090;-115.340;2023-04-16T08:49:29;2.00;;;0.80;;
74538;SDS011;66042;51.090;-115.340;2023-04-16T08:51:59;1.80;;;0.80;;
74538;SDS011;66042;51.090;-115.340;2023-04-16T08:54:47;2.10;;;0.70;;
74538;SDS011;66042;51.090;-115.340;2023-04-16T08:57:28;1.60;;;0.60;;
74538;SDS011;66042;51.090;-115.340;2023-04-16T09:00:03;1.50;;;0.50;;
74538;SDS011;66042;51.090;-115.340;2023-04-16T09:02:31;1.50;;;0.70;;
74538;SDS011;66042;51.090;-115.340;2023-04-16T09:05:00;1.80;;;0.80;;
74538;SDS011;66042;51.090;-115.340;2023-04-16T09:07:31;2.30;;;0.80;;
74538;SDS011;66042;51.090;-115.340;2023-04-16T09:10:00;1.20;;;0.60;;
74538;SDS011;66042;51.090;-115.340;2023-04-16T09:12:31;2.30;;;1.10;;
74538;SDS011;66042;51.090;-115.340;2023-04-16T09:14:58;2.70;;;0.70;;
74538;SDS011;66042;51.090;-115.340;2023-04-16T09:17:28;3.70;;;0.80;;
74538;SDS011;66042;51.090;-115.340;2023-04-16T09:20:14;2.40;;;0.70;;
74538;SDS011;66042;51.090;-115.340;2023-04-16T09:22:42;2.10;;;0.70;;
74538;SDS011;66042;51.090;-115.340;2023-04-16T09:25:10;1.90;;;0.90;;
74538;SDS011;66042;51.090;-115.340;2023-04-16T09:27:41;2.00;;;1.00;;
74538;SDS011;66042;51.090;-115.340;2023-04-16T09:32:50;2.30;;;0.70;;
74538;SDS011;66042;51.090;-115.340;2023-04-16T09:35:18;1.10;;;0.70;;
74538;SDS011;66042;51.090;-115.340;2023-04-16T09:37:55;1.70;;;0.80;;
74538;SDS011;66042;51.090;-115.340;2023-04-16T09:40:26;1.60;;;0.80;;
74538;SDS011;66042;51.090;-115.340;2023-04-16T09:42:58;3.50;;;0.70;;
74538;SDS011;66042;51.090;-115.340;2023-04-16T09:45:30;1.50;;;0.50;;
74538;SDS011;66042;51.090;-115.340;2023-04-16T09:48:02;4.30;;;0.60;;
74538;SDS011;66042;51.090;-115.340;2023-04-16T09:50:32;1.60;;;0.70;;
74538;SDS011;66042;51.090;-115.340;2023-04-16T09:53:01;1.50;;;0.60;;
74538;SDS011;66042;51.090;-115.340;2023-04-16T09:55:28;1.50;;;0.60;;
74538;SDS011;66042;51.090;-115.340;2023-04-16T09:58:00;1.80;;;0.70;;
74538;SDS011;66042;51.090;-115.340;2023-04-16T10:00:28;4.30;;;0.70;;
74538;SDS011;66042;51.090;-115.340;2023-04-16T10:03:05;1.60;;;0.60;;
74538;SDS011;66042;51.090;-115.340;2023-04-16T10:05:32;4.00;;;0.90;;
74538;SDS011;66042;51.090;-115.340;2023-04-16T10:08:00;3.20;;;0.80;;
74538;SDS011;66042;51.090;-115.340;2023-04-16T10:10:28;1.90;;;0.50;;
74538;SDS011;66042;51.090;-115.340;2023-04-16T10:12:55;2.50;;;0.60;;
74538;SDS011;66042;51.090;-115.340;2023-04-16T10:15:22;2.50;;;0.80;;
74538;SDS011;66042;51.090;-115.340;2023-04-16T10:17:50;1.20;;;0.70;;
74538;SDS011;66042;51.090;-115.340;2023-04-16T10:20:19;1.50;;;0.60;;
74538;SDS011;66042;51.090;-115.340;2023-04-16T10:22:47;1.80;;;0.80;;
74538;SDS011;66042;51.090;-115.340;2023-04-16T10:25:16;2.30;;;0.60;;
74538;SDS011;66042;51.090;-115.340;2023-04-16T10:27:43;1.80;;;0.80;;
74538;SDS011;66042;51.090;-115.340;2023-04-16T10:30:12;2.10;;;0.90;;
74538;SDS011;66042;51.090;-115.340;2023-04-16T10:32:41;1.70;;;0.80;;
74538;SDS011;66042;51.090;-115.340;2023-04-16T10:35:14;2.20;;;0.70;;
74538;SDS011;66042;51.090;-115.340;2023-04-16T10:37:45;1.40;;;0.70;;
74538;SDS011;66042;51.090;-115.340;2023-04-16T10:40:26;2.50;;;0.60;;
74538;SDS011;66042;51.090;-115.340;2023-04-16T10:42:58;5.30;;;1.00;;
74538;SDS011;66042;51.090;-115.340;2023-04-16T10:45:36;1.30;;;0.70;;
74538;SDS011;66042;51.090;-115.340;2023-04-16T10:48:06;2.20;;;0.70;;
74538;SDS011;66042;51.090;-115.340;2023-04-16T10:50:37;1.60;;;0.80;;
74538;SDS011;66042;51.090;-115.340;2023-04-16T10:53:26;1.60;;;0.90;;
74538;SDS011;66042;51.090;-115.340;2023-04-16T10:58:33;1.20;;;0.50;;
74538;SDS011;66042;51.090;-115.340;2023-04-16T11:01:07;1.20;;;0.50;;
74538;SDS011;66042;51.090;-115.340;2023-04-16T11:03:42;1.90;;;0.70;;
74538;SDS011;66042;51.090;-115.340;2023-04-16T11:06:18;3.90;;;0.80;;
74538;SDS011;66042;51.090;-115.340;2023-04-16T11:08:51;1.40;;;0.60;;
74538;SDS011;66042;51.090;-115.340;2023-04-16T11:11:20;1.20;;;0.50;;
74538;SDS011;66042;51.090;-115.340;2023-04-16T11:13:48;2.80;;;0.90;;
74538;SDS011;66042;51.090;-115.340;2023-04-16T11:16:15;1.20;;;0.60;;
74538;SDS011;66042;51.090;-115.340;2023-04-16T11:18:45;1.40;;;0.80;;
74538;SDS011;66042;51.090;-115.340;2023-04-16T11:21:12;1.90;;;1.00;;
74538;SDS011;66042;51.090;-115.340;2023-04-16T11:23:49;2.20;;;1.00;;
74538;SDS011;66042;51.090;-115.340;2023-04-16T11:26:26;2.20;;;0.50;;
74538;SDS011;66042;51.090;-115.340;2023-04-16T11:28:56;1.60;;;0.80;;
74538;SDS011;66042;51.090;-115.340;2023-04-16T11:31:24;1.90;;;1.00;;
74538;SDS011;66042;51.090;-115.340;2023-04-16T11:33:53;1.90;;;0.70;;
74538;SDS011;66042;51.090;-115.340;2023-04-16T11:36:21;2.10;;;0.60;;
74538;SDS011;66042;51.090;-115.340;2023-04-16T11:38:48;2.20;;;0.90;;
74538;SDS011;66042;51.090;-115.340;2023-04-16T11:41:21;1.40;;;0.70;;
74538;SDS011;66042;51.090;-115.340;2023-04-16T11:43:48;1.90;;;1.20;;
74538;SDS011;66042;51.090;-115.340;2023-04-16T11:46:15;1.70;;;0.80;;
74538;SDS011;66042;51.090;-115.340;2023-04-16T11:48:49;3.70;;;1.10;;
74538;SDS011;66042;51.090;-115.340;2023-04-16T11:51:18;1.70;;;0.70;;
74538;SDS011;66042;51.090;-115.340;2023-04-16T11:53:52;1.90;;;0.50;;
74538;SDS011;66042;51.090;-115.340;2023-04-16T11:56:25;2.80;;;0.90;;
74538;SDS011;66042;51.090;-115.340;2023-04-16T11:59:09;1.70;;;1.00;;
74538;SDS011;66042;51.090;-115.340;2023-04-16T12:01:40;1.50;;;0.60;;
74538;SDS011;66042;51.090;-115.340;2023-04-16T12:04:10;1.20;;;0.90;;
74538;SDS011;66042;51.090;-115.340;2023-04-16T12:07:26;1.80;;;0.60;;
74538;SDS011;66042;51.090;-115.340;2023-04-16T12:09:39;1.50;;;0.50;;
74538;SDS011;66042;51.090;-115.340;2023-04-16T12:12:29;1.50;;;0.80;;
74538;SDS011;66042;51.090;-115.340;2023-04-16T12:14:57;1.40;;;0.80;;
74538;SDS011;66042;51.090;-115.340;2023-04-16T12:17:25;3.80;;;0.70;;
74538;SDS011;66042;51.090;-115.340;2023-04-16T12:19:57;2.40;;;0.80;;
74538;SDS011;66042;51.090;-115.340;2023-04-16T12:22:30;1.90;;;1.00;;
74538;SDS011;66042;51.090;-115.340;2023-04-16T12:30:17;1.80;;;0.80;;
74538;SDS011;66042;51.090;-115.340;2023-04-16T12:32:52;4.10;;;0.80;;
74538;SDS011;66042;51.090;-115.340;2023-04-16T12:35:40;2.10;;;0.60;;
74538;SDS011;66042;51.090;-115.340;2023-04-16T12:38:08;2.10;;;0.60;;
74538;SDS011;66042;51.090;-115.340;2023-04-16T12:40:37;2.70;;;0.80;;
74538;SDS011;66042;51.090;-115.340;2023-04-16T12:43:04;3.70;;;0.60;;
74538;SDS011;66042;51.090;-115.340;2023-04-16T12:45:31;3.90;;;0.80;;
74538;SDS011;66042;51.090;-115.340;2023-04-16T12:47:58;3.30;;;1.00;;
74538;SDS011;66042;51.090;-115.340;2023-04-16T12:50:26;2.10;;;0.70;;
74538;SDS011;66042;51.090;-115.340;2023-04-16T12:52:56;1.60;;;0.60;;
74538;SDS011;66042;51.090;-115.340;2023-04-16T12:55:24;3.00;;;1.00;;
74538;SDS011;66042;51.090;-115.340;2023-04-16T12:57:51;2.30;;;0.60;;
74538;SDS011;66042;51.090;-115.340;2023-04-16T13:00:19;1.40;;;0.70;;
74538;SDS011;66042;51.090;-115.340;2023-04-16T13:02:47;2.80;;;0.70;;
74538;SDS011;66042;51.090;-115.340;2023-04-16T13:05:14;2.50;;;0.90;;
74538;SDS011;66042;51.090;-115.340;2023-04-16T13:07:44;2.80;;;0.60;;
74538;SDS011;66042;51.090;-115.340;2023-04-16T13:10:11;1.70;;;0.90;;
74538;SDS011;66042;51.090;-115.340;2023-04-16T13:12:38;1.80;;;0.80;;
74538;SDS011;66042;51.090;-115.340;2023-04-16T13:15:06;2.70;;;0.80;;
74538;SDS011;66042;51.090;-115.340;2023-04-16T13:17:33;1.20;;;0.50;;
74538;SDS011;66042;51.090;-115.340;2023-04-16T13:20:01;1.80;;;0.70;;
74538;SDS011;66042;51.090;-115.340;2023-04-16T13:22:28;2.00;;;0.70;;
74538;SDS011;66042;51.090;-115.340;2023-04-16T13:24:55;3.80;;;0.70;;
74538;SDS011;66042;51.090;-115.340;2023-04-16T13:27:22;1.90;;;0.70;;
74538;SDS011;66042;51.090;-115.340;2023-04-16T13:29:50;1.90;;;1.00;;
74538;SDS011;66042;51.090;-115.340;2023-04-16T13:32:17;2.30;;;0.70;;
74538;SDS011;66042;51.090;-115.340;2023-04-16T13:34:44;2.60;;;0.80;;
74538;SDS011;66042;51.090;-115.340;2023-04-16T13:37:12;2.50;;;0.80;;
74538;SDS011;66042;51.090;-115.340;2023-04-16T13:39:39;4.30;;;1.40;;
74538;SDS011;66042;51.090;-115.340;2023-04-16T13:42:06;2.30;;;0.70;;
74538;SDS011;66042;51.090;-115.340;2023-04-16T13:44:33;1.40;;;0.70;;
74538;SDS011;66042;51.090;-115.340;2023-04-16T13:47:00;3.30;;;0.90;;
74538;SDS011;66042;51.090;-115.340;2023-04-16T13:49:27;3.80;;;0.80;;
74538;SDS011;66042;51.090;-115.340;2023-04-16T13:51:55;2.90;;;1.00;;
74538;SDS011;66042;51.090;-115.340;2023-04-16T13:54:22;3.60;;;0.70;;
74538;SDS011;66042;51.090;-115.340;2023-04-16T13:56:49;2.70;;;0.60;;
74538;SDS011;66042;51.090;-115.340;2023-04-16T13:59:17;3.00;;;0.80;;
74538;SDS011;66042;51.090;-115.340;2023-04-16T14:01:45;3.30;;;0.80;;
74538;SDS011;66042;51.090;-115.340;2023-04-16T14:04:12;3.20;;;0.90;;
74538;SDS011;66042;51.090;-115.340;2023-04-16T14:06:39;2.00;;;0.70;;
74538;SDS011;66042;51.090;-115.340;2023-04-16T14:09:06;1.60;;;0.80;;
74538;SDS011;66042;51.090;-115.340;2023-04-16T14:11:36;4.20;;;0.40;;
74538;SDS011;66042;51.090;-115.340;2023-04-16T14:14:03;3.80;;;0.60;;
74538;SDS011;66042;51.090;-115.340;2023-04-16T14:16:30;2.80;;;0.70;;
74538;SDS011;66042;51.090;-115.340;2023-04-16T14:18:57;3.40;;;0.80;;
74538;SDS011;66042;51.090;-115.340;2023-04-16T14:21:24;3.90;;;0.50;;
74538;SDS011;66042;51.090;-115.340;2023-04-16T14:23:52;3.50;;;0.90;;
74538;SDS011;66042;51.090;-115.340;2023-04-16T14:26:18;4.10;;;0.90;;